createdAt,value
2023-01-26T00:00:27.533Z,-0.82
2023-01-26T00:07:01.736Z,-0.82
2023-01-26T00:11:05.568Z,-0.83
2023-01-26T00:16:24.995Z,-0.82
2023-01-26T00:21:44.283Z,-0.83
2023-01-26T00:27:03.491Z,-0.85
2023-01-26T00:32:22.793Z,-0.85
2023-01-26T00:37:41.926Z,-0.89
2023-01-26T00:43:00.756Z,-0.9
2023-01-26T00:48:19.894Z,-0.86
2023-01-26T00:53:39.047Z,-0.83
2023-01-26T00:58:58.399Z,-0.82
2023-01-26T01:04:18.141Z,-0.8
2023-01-26T01:09:37.518Z,-0.8
2023-01-26T01:14:56.861Z,-0.8
2023-01-26T01:20:16.316Z,-0.79
2023-01-26T01:25:35.323Z,-0.79
2023-01-26T01:30:54.587Z,-0.75
2023-01-26T01:36:14.358Z,-0.79
2023-01-26T01:41:33.520Z,-0.77
2023-01-26T01:46:52.650Z,-0.75
2023-01-26T01:52:12.321Z,-0.79
2023-01-26T01:57:31.509Z,-0.77
2023-01-26T02:02:50.463Z,-0.82
2023-01-26T02:08:10.272Z,-0.83
2023-01-26T02:13:29.782Z,-0.86
2023-01-26T02:18:49.151Z,-0.89
2023-01-26T02:24:08.740Z,-0.93
2023-01-26T02:29:27.888Z,-0.93
2023-01-26T02:34:46.997Z,-0.94
2023-01-26T02:40:05.927Z,-0.97
2023-01-26T02:45:25.079Z,-0.96
2023-01-26T02:50:44.657Z,-0.96
2023-01-26T02:56:04.206Z,-0.94
2023-01-26T03:01:23.016Z,-0.93
2023-01-26T03:06:42.089Z,-0.9
2023-01-26T03:12:01.804Z,-0.93
2023-01-26T03:17:21.261Z,-0.97
2023-01-26T03:22:40.748Z,-0.97
2023-01-26T03:28:00.326Z,-0.99
2023-01-26T03:33:19.358Z,-0.97
2023-01-26T03:38:38.707Z,-0.99
2023-01-26T03:43:58.018Z,-1.01
2023-01-26T03:49:17.384Z,-1
2023-01-26T03:54:36.854Z,-1.03
2023-01-26T03:59:55.748Z,-1.03
2023-01-26T04:05:15.266Z,-1.04
2023-01-26T04:10:34.633Z,-1.07
2023-01-26T04:15:55.205Z,-1.1
2023-01-26T04:21:13.974Z,-1.08
2023-01-26T04:26:32.924Z,-1.11
2023-01-26T04:31:51.801Z,-1.11
2023-01-26T04:37:11.175Z,-1.14
2023-01-26T04:42:30.760Z,-1.16
2023-01-26T04:47:49.624Z,-1.16
2023-01-26T04:53:09.076Z,-1.17
2023-01-26T04:58:28.394Z,-1.21
2023-01-26T05:03:48.187Z,-1.2
2023-01-26T05:09:07.962Z,-1.21
2023-01-26T05:14:27.693Z,-1.24
2023-01-26T05:19:46.563Z,-1.24
2023-01-26T05:25:05.847Z,-1.25
2023-01-26T05:30:24.947Z,-1.27
2023-01-26T05:35:44.680Z,-1.27
2023-01-26T05:41:03.571Z,-1.27
2023-01-26T05:46:21.929Z,-1.28
2023-01-26T05:51:41.176Z,-1.28
2023-01-26T05:57:00.870Z,-1.25
2023-01-26T06:02:20.600Z,-1.27
2023-01-26T06:07:40.229Z,-1.27
2023-01-26T06:12:59.763Z,-1.28
2023-01-26T06:18:19.102Z,-1.25
2023-01-26T06:23:38.744Z,-1.27
2023-01-26T06:28:57.632Z,-1.24
2023-01-26T06:34:16.996Z,-1.25
2023-01-26T06:39:36.116Z,-1.24
2023-01-26T06:44:55.779Z,-1.25
2023-01-26T06:50:15.351Z,-1.21
2023-01-26T06:55:35.168Z,-1.21
2023-01-26T07:00:54.819Z,-1.23
2023-01-26T07:06:13.732Z,-1.24
2023-01-26T07:11:33.439Z,-1.21
2023-01-26T07:16:52.811Z,-1.21
2023-01-26T07:22:12.023Z,-1.21
2023-01-26T07:27:31.792Z,-1.17
2023-01-26T07:32:50.718Z,-1.16
2023-01-26T07:38:10.103Z,-1.16
2023-01-26T07:43:29.452Z,-1.14
2023-01-26T07:48:48.434Z,-1.13
2023-01-26T07:54:08.034Z,-1.08
2023-01-26T07:59:27.331Z,-1.04
2023-01-26T08:04:47.558Z,-1.03
2023-01-26T08:10:06.426Z,-1.04
2023-01-26T08:15:25.691Z,-1.03
2023-01-26T08:20:44.804Z,-0.96
2023-01-26T08:26:04.553Z,-0.93
2023-01-26T08:31:24.405Z,-0.94
2023-01-26T08:36:43.426Z,-1
2023-01-26T08:42:02.687Z,-1.03
2023-01-26T08:47:21.774Z,-1.04
2023-01-26T08:52:41.494Z,-1.03
2023-01-26T08:58:00.899Z,-1
2023-01-26T09:03:19.903Z,-0.92
2023-01-26T09:08:39.399Z,-0.89
2023-01-26T09:13:58.279Z,-0.86
2023-01-26T09:19:17.583Z,-0.85
2023-01-26T09:24:36.585Z,-0.83
2023-01-26T09:29:56.204Z,-0.86
2023-01-26T09:35:15.749Z,-0.83
2023-01-26T09:40:34.808Z,-0.85
2023-01-26T09:45:54.124Z,-0.82
2023-01-26T09:51:13.266Z,-0.85
2023-01-26T09:56:32.357Z,-0.86
2023-01-26T10:01:51.883Z,-0.8
2023-01-26T10:07:10.826Z,-0.79
2023-01-26T10:12:30.353Z,-0.75
2023-01-26T10:17:49.709Z,-0.65
2023-01-26T10:23:08.693Z,-0.52
2023-01-26T10:28:28.391Z,-0.45
2023-01-26T10:33:47.976Z,-0.38
2023-01-26T10:34:14.148Z,-0.21
2023-01-26T10:39:32.849Z,-0.31
2023-01-26T10:44:52.698Z,-0.35
2023-01-26T10:50:12.429Z,-0.45
2023-01-26T10:55:31.915Z,-0.58
2023-01-26T11:00:51.346Z,-0.66
2023-01-26T11:06:10.231Z,-0.7
2023-01-26T11:11:30.078Z,-0.69
2023-01-26T11:16:49.753Z,-0.73
2023-01-26T11:22:08.789Z,-0.69
2023-01-26T11:27:27.981Z,-0.68
2023-01-26T11:32:47.515Z,-0.66
2023-01-26T11:38:06.476Z,-0.68
2023-01-26T11:43:25.403Z,-0.69
2023-01-26T11:48:44.635Z,-0.75
2023-01-26T11:54:04.239Z,-0.73
2023-01-26T11:59:24.029Z,-0.77
2023-01-26T12:04:42.906Z,-0.83
2023-01-26T12:10:02.147Z,-0.76
2023-01-26T12:15:21.185Z,-0.73
2023-01-26T12:20:40.162Z,-0.65
2023-01-26T12:25:59.863Z,-0.61
2023-01-26T12:31:19.748Z,-0.58
2023-01-26T12:36:38.680Z,-0.61
2023-01-26T12:41:58.471Z,-0.69
2023-01-26T12:47:18.077Z,-0.77
2023-01-26T12:52:37.679Z,-0.79
2023-01-26T12:57:56.611Z,-0.79
2023-01-26T13:03:15.620Z,-0.75
2023-01-26T13:08:35.133Z,-0.7
2023-01-26T13:13:54.288Z,-0.73
2023-01-26T13:19:13.933Z,-0.75
2023-01-26T13:24:33.492Z,-0.82
2023-01-26T13:29:52.440Z,-0.77
2023-01-26T13:35:11.784Z,-0.8
2023-01-26T13:40:31.432Z,-0.8
2023-01-26T13:45:50.022Z,-0.82
2023-01-26T13:51:09.287Z,-0.82
2023-01-26T13:56:28.852Z,-0.82
2023-01-26T14:01:47.844Z,-0.82
2023-01-26T14:07:07.365Z,-0.79
2023-01-26T14:12:26.745Z,-0.75
2023-01-26T14:17:46.193Z,-0.76
2023-01-26T14:23:05.703Z,-0.75
2023-01-26T14:28:25.151Z,-0.75
2023-01-26T14:33:44.471Z,-0.72
2023-01-26T14:39:03.459Z,-0.7
2023-01-26T14:44:23.593Z,-0.68
2023-01-26T14:49:43.359Z,-0.66
2023-01-26T14:55:02.198Z,-0.66
2023-01-26T15:00:21.991Z,-0.68
2023-01-26T15:05:41.686Z,-0.66
2023-01-26T15:11:01.032Z,-0.66
2023-01-26T15:16:20.722Z,-0.65
2023-01-26T15:21:40.032Z,-0.63
2023-01-26T15:26:58.845Z,-0.66
2023-01-26T15:32:18.349Z,-0.65
2023-01-26T15:37:38.149Z,-0.7
2023-01-26T15:42:57.325Z,-0.7
2023-01-26T15:48:17.178Z,-0.72
2023-01-26T15:53:36.908Z,-0.72
2023-01-26T15:58:55.800Z,-0.8
2023-01-26T16:05:30.047Z,-0.87
2023-01-26T16:09:35.894Z,-0.93
2023-01-26T16:14:54.978Z,-0.94
2023-01-26T16:20:14.419Z,-0.99
2023-01-26T16:25:33.633Z,-1.03
2023-01-26T16:30:53.379Z,-1.04
2023-01-26T16:36:12.672Z,-1.1
2023-01-26T16:41:30.835Z,-1.1
2023-01-26T16:46:50.341Z,-1.13
2023-01-26T16:52:09.561Z,-1.14
2023-01-26T16:57:28.482Z,-1.16
2023-01-26T17:02:47.794Z,-1.2
2023-01-26T17:08:07.304Z,-1.2
2023-01-26T17:13:26.845Z,-1.23
2023-01-26T17:18:46.157Z,-1.24
2023-01-26T17:24:05.256Z,-1.24
2023-01-26T17:29:24.279Z,-1.24
2023-01-26T17:34:44.003Z,-1.27
2023-01-26T17:40:03.039Z,-1.27
2023-01-26T17:45:22.138Z,-1.27
2023-01-26T17:50:41.244Z,-1.3
2023-01-26T17:56:00.548Z,-1.3
2023-01-26T18:01:19.550Z,-1.31
2023-01-26T18:06:38.715Z,-1.33
2023-01-26T18:11:58.331Z,-1.3
2023-01-26T18:17:17.938Z,-1.33
2023-01-26T18:22:37.579Z,-1.35
2023-01-26T18:27:57.221Z,-1.35
2023-01-26T18:33:16.772Z,-1.38
2023-01-26T18:38:36.499Z,-1.37
2023-01-26T18:43:55.345Z,-1.41
2023-01-26T18:49:14.585Z,-1.38
2023-01-26T18:54:33.819Z,-1.43
2023-01-26T18:59:52.979Z,-1.45
2023-01-26T19:05:12.354Z,-1.48
2023-01-26T19:10:31.645Z,-1.48
2023-01-26T19:15:50.883Z,-1.5
2023-01-26T19:21:10.361Z,-1.51
2023-01-26T19:26:29.645Z,-1.5
2023-01-26T19:31:49.316Z,-1.52
2023-01-26T19:37:08.581Z,-1.52
2023-01-26T19:42:27.190Z,-1.52
2023-01-26T19:47:46.560Z,-1.51
2023-01-26T19:53:07.617Z,-1.52
2023-01-26T19:58:25.246Z,-1.52
2023-01-26T20:03:44.651Z,-1.54
2023-01-26T20:09:04.974Z,-1.52
2023-01-26T20:14:23.774Z,-1.52
2023-01-26T20:19:43.337Z,-1.54
2023-01-26T20:25:02.947Z,-1.52
2023-01-26T20:30:21.907Z,-1.55
2023-01-26T20:35:40.986Z,-1.52
2023-01-26T20:41:00.690Z,-1.55
2023-01-26T20:46:19.638Z,-1.58
2023-01-26T20:51:39.190Z,-1.56
2023-01-26T20:56:58.974Z,-1.56
2023-01-26T21:02:18.708Z,-1.58
2023-01-26T21:07:37.784Z,-1.59
2023-01-26T21:12:57.197Z,-1.59
2023-01-26T21:18:16.465Z,-1.59
2023-01-26T21:23:35.776Z,-1.62
2023-01-26T21:28:54.836Z,-1.59
2023-01-26T21:34:14.374Z,-1.59
2023-01-26T21:39:34.012Z,-1.61
2023-01-26T21:44:53.093Z,-1.64
2023-01-26T21:50:12.194Z,-1.64
2023-01-26T21:55:30.729Z,-1.64
2023-01-26T22:00:50.146Z,-1.64
2023-01-26T22:06:08.976Z,-1.66
2023-01-26T22:11:27.963Z,-1.68
2023-01-26T22:16:47.565Z,-1.66
2023-01-26T22:22:06.598Z,-1.66
2023-01-26T22:27:25.514Z,-1.64
2023-01-26T22:32:44.464Z,-1.62
2023-01-26T22:38:04.027Z,-1.59
2023-01-26T22:43:23.362Z,-1.58
2023-01-26T22:48:43.052Z,-1.58
2023-01-26T22:54:03.208Z,-1.59
2023-01-26T22:59:22.395Z,-1.59
2023-01-26T23:04:42.026Z,-1.59
2023-01-26T23:10:00.825Z,-1.56
2023-01-26T23:15:20.451Z,-1.55
2023-01-26T23:20:40.091Z,-1.54
2023-01-26T23:27:14.276Z,-1.56
2023-01-26T23:31:19.886Z,-1.55
2023-01-26T23:36:38.278Z,-1.55
2023-01-26T23:41:57.996Z,-1.56
2023-01-26T23:47:17.003Z,-1.56
2023-01-26T23:52:36.635Z,-1.56
2023-01-26T23:57:56.409Z,-1.56
